White Lake charter Township, MI

11:13 PM EST on February 07, 2016 (GMT -0500)
White Lake, MI | | Change Station
CLOSE
Current Station
Personal Weather Station
Location: White Lake Township, MI
Elevation: 1050 ft
Nearby Weather Stations

Elev 1050 ft 42.67 °N, 83.50 °W | Updated 3 minutes ago

Mostly Cloudy
Mostly Cloudy
41.2 °F
Feels Like 41 °F
N
2.0
Wind Variable Wind from SW
Gusts 2.0 mph

Today
High -- | Low -- °F
--% Chance of Precip.
Yesterday
High -- | Low -- °F
Precip. -- in
Pressure 29.71 in
Visibility 10.0 miles
Clouds Overcast 3600 ft
Windchill 41 °F
Dew Point 32 °F
Humidity 71%
Rainfall 0.00 in
Snow Depth Not available.
7:41 AM 5:54 PM
Waning Crescent, 0% visible
METAR KPTK 080353Z 20005KT 10SM OVC036 06/M01 A2969 RMK AO2 SLP059 T00561006
Pressure 29.71 in
Visibility 10.0 miles
Clouds Overcast 3600 ft
Windchill 41 °F
Dew Point 32 °F
Humidity 71%
Rainfall 0.00 in
Snow Depth Not available.
7:41 AM 5:54 PM
Waning Crescent, 0% visible
METAR KPTK 080353Z 20005KT 10SM OVC036 06/M01 A2969 RMK AO2 SLP059 T00561006

10-Day Weather Forecast

Almanac

Astronomy

Feb. 07, 2016 Rise Set
Actual Time
Civil Twilight
Nautical Twilight
Astronomical Twilight
Moon
Length of Visible Light
Length of Day
Tomorrow will be .
, % of the Moon is Illuminated

Today's Extremes

State Highs State Lows

Community

WunderPhotos

Upload Photos

1,891,379 photos uploaded!

WunderBlog® & News

Nearby

Air Quality

  Air Quality AQ Index Pollutant
Not available.

Snow Depth

Station Depth Elevation

Earthquake Activity

City Distance Mag. Time & Date
Minimum magnitude displayed is 2.5.

Coastal Water Temperatures

Place Temperature

Stations

Nearby Weather Stations

Station Location Temp. Windchill Dew Point Humidity Wind Precip. Elev Updated Type
                   

Watches & Warnings

There are currently no watches in effect.